Time;durP1;ratioP1;P1;durP2;ratioP2;P2;SDS_P1;SDS_P2;PMS_P1;PMS_P2;Temp;Humidity;BMP_temperature;BMP_pressure;BME280_temperature;BME280_humidity;BME280_pressure;Samples;Min_cycle;Max_cycle;Signal;HPM_P1;HPM_P2
2024/04/25 00:01:52;;;;;;;;;;;5.70;99.90;;;;;;5452503;26;20296;-74
2024/04/25 00:04:18;;;;;;;;;;;5.60;99.90;;;;;;5420641;26;19924;-73
2024/04/25 00:06:43;;;;;;;;;;;5.60;99.90;;;;;;5420334;26;19924;-73
2024/04/25 00:09:09;;;;;;;;;;;5.50;99.90;;;;;;5452265;26;19924;-74
2024/04/25 00:11:34;;;;;;;;;;;5.50;99.90;;;;;;5452604;26;19931;-73
2024/04/25 00:14:01;;;;;;;;;;;5.40;99.90;;;;;;5452061;26;19924;-72
2024/04/25 00:16:27;;;;;;;;;;;5.30;99.90;;;;;;5450517;26;19931;-74
2024/04/25 00:18:52;;;;;;;;;;;5.30;99.90;;;;;;5450323;26;19952;-74
2024/04/25 00:21:18;;;;;;;;;;;5.20;99.90;;;;;;5420262;26;19992;-74
2024/04/25 00:23:43;;;;;;;;;;;5.10;99.90;;;;;;5452049;26;19997;-73
2024/04/25 00:26:09;;;;;;;;;;;5.10;99.90;;;;;;5452218;26;19924;-74
2024/04/25 00:28:35;;;;;;;;;;;5.10;99.90;;;;;;5450230;26;19931;-74
2024/04/25 00:31:00;;;;;;;;;;;5.10;99.90;;;;;;5452151;26;19924;-74
2024/04/25 00:33:26;;;;;;;;;;;5.00;99.90;;;;;;5419855;26;19924;-73
2024/04/25 00:35:51;;;;;;;;;;;5.00;99.90;;;;;;5419922;26;19924;-74
2024/04/25 00:38:17;;;;;;;;;;;4.90;99.90;;;;;;5451836;26;19997;-72
2024/04/25 00:40:42;;;;;;;;;;;4.80;99.90;;;;;;5420246;26;19932;-73
2024/04/25 00:43:08;;;;;;;;;;;4.80;99.90;;;;;;5449758;26;20014;-73
2024/04/25 00:45:34;;;;;;;;;;;4.80;99.90;;;;;;5452001;26;19936;-74
2024/04/25 00:47:59;;;;;;;;;;;4.80;99.90;;;;;;5419635;26;19925;-73
2024/04/25 00:50:25;;;;;;;;;;;4.80;99.90;;;;;;5451851;26;19931;-73
2024/04/25 00:52:51;;;;;;;;;;;4.70;99.90;;;;;;5449795;26;19962;-74
2024/04/25 00:55:16;;;;;;;;;;;4.70;99.90;;;;;;5451643;26;20370;-73
2024/04/25 00:57:43;;;;;;;;;;;4.60;99.90;;;;;;5449102;26;19932;-73
2024/04/25 01:00:10;;;;;;;;;;;4.60;99.90;;;;;;5451265;26;19997;-74
2024/04/25 01:02:36;;;;;;;;;;;4.60;99.90;;;;;;5449495;26;20361;-74
2024/04/25 01:05:02;;;;;;;;;;;4.60;99.90;;;;;;5452100;26;19925;-73
2024/04/25 01:07:28;;;;;;;;;;;4.70;99.90;;;;;;5449716;26;19987;-73
2024/04/25 01:09:56;;;;;;;;;;;4.70;99.90;;;;;;5449511;26;19988;-74
2024/04/25 01:12:25;;;;;;;;;;;4.70;99.90;;;;;;5449710;26;19924;-72
2024/04/25 01:14:51;;;;;;;;;;;4.70;99.90;;;;;;5449536;26;20268;-73
2024/04/25 01:17:16;;;;;;;;;;;4.70;99.90;;;;;;5449702;26;19925;-72
2024/04/25 01:19:42;;;;;;;;;;;4.70;99.90;;;;;;5449314;26;19936;-74
2024/04/25 01:22:08;;;;;;;;;;;4.70;99.90;;;;;;5451258;26;19984;-73
2024/04/25 01:24:33;;;;;;;;;;;4.70;99.90;;;;;;5451202;26;20382;-73
2024/04/25 01:27:00;;;;;;;;;;;4.70;99.90;;;;;;5449269;26;20330;-72
2024/04/25 01:29:26;;;;;;;;;;;4.60;99.90;;;;;;5449197;26;19931;-73
2024/04/25 01:31:52;;;;;;;;;;;4.60;99.90;;;;;;5419441;26;19964;-75
2024/04/25 01:34:18;;;;;;;;;;;4.60;99.90;;;;;;5451142;26;19931;-73
2024/04/25 01:36:44;;;;;;;;;;;4.50;99.90;;;;;;5451262;26;19952;-74
2024/04/25 01:39:10;;;;;;;;;;;4.40;99.90;;;;;;5419289;26;19932;-73
2024/04/25 01:41:35;;;;;;;;;;;4.40;99.90;;;;;;5451118;26;19925;-73
2024/04/25 01:44:01;;;;;;;;;;;4.50;99.90;;;;;;5448862;26;19931;-74
2024/04/25 01:46:26;;;;;;;;;;;4.40;99.90;;;;;;5450875;26;19993;-72
2024/04/25 01:48:53;;;;;;;;;;;4.40;99.90;;;;;;5448791;26;19924;-73
2024/04/25 01:51:19;;;;;;;;;;;4.40;99.90;;;;;;5448921;26;20434;-74
2024/04/25 01:53:45;;;;;;;;;;;4.30;99.90;;;;;;5448991;26;19952;-73
2024/04/25 01:56:11;;;;;;;;;;;4.30;99.90;;;;;;5450747;26;20266;-73
2024/04/25 01:58:36;;;;;;;;;;;4.30;99.90;;;;;;5450504;26;19932;-74
2024/04/25 02:01:02;;;;;;;;;;;4.30;99.90;;;;;;5450776;26;19924;-73
2024/04/25 02:03:27;;;;;;;;;;;4.30;99.90;;;;;;5449074;26;20253;-73
2024/04/25 02:05:53;;;;;;;;;;;4.20;99.90;;;;;;5450755;26;19924;-74
2024/04/25 02:08:18;;;;;;;;;;;4.20;99.90;;;;;;5417723;26;19931;-74
2024/04/25 02:10:44;;;;;;;;;;;4.10;99.90;;;;;;5418743;26;19924;-74
2024/04/25 02:13:09;;;;;;;;;;;4.00;99.90;;;;;;5448908;26;19924;-73
2024/04/25 02:15:35;;;;;;;;;;;3.90;99.90;;;;;;5450930;26;19961;-74
2024/04/25 02:18:01;;;;;;;;;;;3.90;99.90;;;;;;5450002;26;19924;-74
2024/04/25 02:25:59;;;;;;;;;;;3.90;99.90;;;;;;5450403;26;20253;-74
2024/04/25 02:28:25;;;;;;;;;;;3.90;99.90;;;;;;5450227;26;19928;-73
2024/04/25 02:30:50;;;;;;;;;;;3.90;99.90;;;;;;5450142;26;19988;-74
2024/04/25 02:33:16;;;;;;;;;;;3.90;99.90;;;;;;5418451;26;19925;-74
2024/04/25 02:35:41;;;;;;;;;;;3.90;99.90;;;;;;5418532;26;19992;-74
2024/04/25 02:38:07;;;;;;;;;;;3.90;99.90;;;;;;5450149;26;19925;-75
2024/04/25 02:40:32;;;;;;;;;;;3.80;99.90;;;;;;5450355;26;19924;-74
2024/04/25 02:42:58;;;;;;;;;;;3.80;99.90;;;;;;5418069;26;19925;-74
2024/04/25 02:45:23;;;;;;;;;;;3.80;99.90;;;;;;5449813;26;20661;-73
2024/04/25 02:47:49;;;;;;;;;;;3.80;99.90;;;;;;5450017;26;20431;-74
2024/04/25 02:50:14;;;;;;;;;;;3.70;99.90;;;;;;5418359;26;19925;-73
2024/04/25 02:52:40;;;;;;;;;;;3.70;99.90;;;;;;5450416;26;19924;-74
2024/04/25 02:55:06;;;;;;;;;;;3.70;99.90;;;;;;5457632;26;19924;-73
2024/04/25 02:57:31;;;;;;;;;;;3.60;99.90;;;;;;5454757;26;19948;-74
2024/04/25 02:59:57;;;;;;;;;;;3.60;99.90;;;;;;5452174;26;19952;-74
2024/04/25 03:02:22;;;;;;;;;;;3.60;99.90;;;;;;5420017;26;19931;-74
2024/04/25 03:04:48;;;;;;;;;;;3.60;99.90;;;;;;5425687;26;19948;-74
2024/04/25 03:07:13;;;;;;;;;;;3.50;99.90;;;;;;5426621;26;19932;-74
2024/04/25 03:09:39;;;;;;;;;;;3.50;99.90;;;;;;5455475;26;19928;-73
2024/04/25 03:12:04;;;;;;;;;;;3.50;99.90;;;;;;5418621;26;19924;-74
2024/04/25 03:14:30;;;;;;;;;;;3.40;99.90;;;;;;5418207;26;19925;-72
2024/04/25 03:16:56;;;;;;;;;;;3.40;99.90;;;;;;5449538;26;19961;-74
2024/04/25 03:19:22;;;;;;;;;;;3.50;99.90;;;;;;5418103;26;20385;-73
2024/04/25 03:21:48;;;;;;;;;;;3.50;99.90;;;;;;5451069;26;19925;-72
2024/04/25 03:24:13;;;;;;;;;;;3.40;99.90;;;;;;5451149;26;20265;-73
2024/04/25 03:26:39;;;;;;;;;;;3.40;99.90;;;;;;5450597;26;19931;-73
2024/04/25 03:29:05;;;;;;;;;;;3.40;99.90;;;;;;5451162;26;19924;-72
2024/04/25 03:31:31;;;;;;;;;;;3.40;99.90;;;;;;5420812;26;19931;-73
2024/04/25 03:33:56;;;;;;;;;;;3.30;99.90;;;;;;5414817;26;19925;-73
2024/04/25 03:36:24;;;;;;;;;;;3.40;99.90;;;;;;5415266;26;19961;-73
2024/04/25 03:38:51;;;;;;;;;;;3.30;99.90;;;;;;5416708;26;19924;-73
2024/04/25 03:41:16;;;;;;;;;;;3.30;99.90;;;;;;5414931;26;20304;-74
2024/04/25 03:43:42;;;;;;;;;;;3.20;99.90;;;;;;5416821;26;19925;-74
2024/04/25 03:46:08;;;;;;;;;;;3.20;99.90;;;;;;5414770;26;19972;-74
2024/04/25 03:48:33;;;;;;;;;;;3.20;99.90;;;;;;5416654;26;19924;-74
2024/04/25 03:50:59;;;;;;;;;;;3.20;99.90;;;;;;5414163;26;19925;-74
2024/04/25 03:53:24;;;;;;;;;;;3.20;99.90;;;;;;5416510;26;19924;-74
2024/04/25 03:55:50;;;;;;;;;;;3.30;99.90;;;;;;5416585;26;19932;-72
2024/04/25 03:58:15;;;;;;;;;;;3.30;99.90;;;;;;5416466;26;20350;-72
2024/04/25 04:00:41;;;;;;;;;;;3.40;99.90;;;;;;5414773;26;20378;-73
2024/04/25 04:03:07;;;;;;;;;;;3.60;99.90;;;;;;5416346;26;19925;-72
2024/04/25 04:05:39;;;;;;;;;;;3.60;99.90;;;;;;5407696;26;20333;-71
2024/04/25 04:08:05;;;;;;;;;;;3.80;99.90;;;;;;5416122;26;20362;-73
2024/04/25 04:10:31;;;;;;;;;;;3.90;99.90;;;;;;5414086;26;19925;-73
2024/04/25 04:12:56;;;;;;;;;;;4.00;99.90;;;;;;5414435;26;20270;-73
2024/04/25 04:15:22;;;;;;;;;;;4.20;99.90;;;;;;5414501;26;19957;-73
2024/04/25 04:17:47;;;;;;;;;;;4.30;99.90;;;;;;5414086;26;19932;-73
2024/04/25 04:20:13;;;;;;;;;;;4.40;99.90;;;;;;5414390;26;19925;-75
2024/04/25 04:22:39;;;;;;;;;;;4.60;99.90;;;;;;5416467;26;19932;-75
2024/04/25 04:25:04;;;;;;;;;;;4.70;99.90;;;;;;5414210;26;20361;-74
2024/04/25 04:27:30;;;;;;;;;;;4.80;99.90;;;;;;5414305;26;20394;-74
2024/04/25 04:29:55;;;;;;;;;;;5.00;99.90;;;;;;5415986;26;20047;-74
2024/04/25 04:32:21;;;;;;;;;;;5.00;99.90;;;;;;5415321;26;19994;-74
2024/04/25 04:34:48;;;;;;;;;;;5.20;99.90;;;;;;5436021;26;20269;-74
2024/04/25 04:37:13;;;;;;;;;;;5.20;99.90;;;;;;5452087;26;19933;-73
2024/04/25 04:39:39;;;;;;;;;;;5.40;99.90;;;;;;5452015;26;20333;-75
2024/04/25 04:42:04;;;;;;;;;;;5.50;99.90;;;;;;5449760;26;19934;-74
2024/04/25 04:44:30;;;;;;;;;;;5.60;99.90;;;;;;5451321;26;20262;-74
2024/04/25 04:46:55;;;;;;;;;;;5.80;99.90;;;;;;5420070;26;19925;-74
2024/04/25 04:49:21;;;;;;;;;;;5.90;99.90;;;;;;5451703;26;19936;-74
2024/04/25 04:51:46;;;;;;;;;;;6.10;99.90;;;;;;5450068;26;19936;-74
2024/04/25 04:54:12;;;;;;;;;;;6.30;99.90;;;;;;5451794;26;19949;-74
2024/04/25 04:56:41;;;;;;;;;;;6.50;99.90;;;;;;5419904;26;19924;-73
2024/04/25 04:59:06;;;;;;;;;;;6.80;99.90;;;;;;5451577;26;19924;-72
2024/04/25 05:01:32;;;;;;;;;;;7.20;99.90;;;;;;5419981;26;19924;-74
2024/04/25 05:03:57;;;;;;;;;;;7.40;99.90;;;;;;5449783;26;20172;-74
2024/04/25 05:06:24;;;;;;;;;;;7.60;99.90;;;;;;5451539;26;20369;-74
2024/04/25 05:08:50;;;;;;;;;;;7.70;99.90;;;;;;5449497;26;20550;-73
2024/04/25 05:11:15;;;;;;;;;;;7.80;99.90;;;;;;5451547;26;19933;-74
2024/04/25 05:13:41;;;;;;;;;;;8.00;99.90;;;;;;5451415;26;19925;-74
2024/04/25 05:16:08;;;;;;;;;;;8.30;99.90;;;;;;5451290;26;19924;-74
2024/04/25 05:18:33;;;;;;;;;;;8.40;99.90;;;;;;5451509;26;19939;-73
2024/04/25 05:20:59;;;;;;;;;;;8.70;99.90;;;;;;5451553;26;19924;-73
2024/04/25 05:23:24;;;;;;;;;;;9.60;99.90;;;;;;5449472;26;19966;-73
2024/04/25 05:25:50;;;;;;;;;;;10.70;99.90;;;;;;5451231;26;19935;-74
2024/04/25 05:28:15;;;;;;;;;;;11.70;98.50;;;;;;5419476;26;19966;-72
2024/04/25 05:30:41;;;;;;;;;;;12.50;92.40;;;;;;5451210;26;19933;-74
2024/04/25 05:33:07;;;;;;;;;;;12.90;89.30;;;;;;5450953;26;19925;-73
2024/04/25 05:35:34;;;;;;;;;;;13.20;81.00;;;;;;5451011;26;19924;-74
2024/04/25 05:38:00;;;;;;;;;;;13.20;80.30;;;;;;5450899;26;20443;-74
2024/04/25 05:40:25;;;;;;;;;;;12.90;80.00;;;;;;5449140;26;19934;-74
2024/04/25 05:42:51;;;;;;;;;;;13.00;84.30;;;;;;5447460;26;19924;-74
2024/04/25 05:45:16;;;;;;;;;;;13.60;79.60;;;;;;5418734;26;19925;-73
2024/04/25 05:47:42;;;;;;;;;;;14.20;72.10;;;;;;5450785;26;19936;-74
2024/04/25 05:50:07;;;;;;;;;;;15.00;69.00;;;;;;5450664;26;19924;-74
2024/04/25 05:52:33;;;;;;;;;;;15.90;62.90;;;;;;5418796;26;19932;-75
2024/04/25 05:54:58;;;;;;;;;;;16.80;58.00;;;;;;5448983;26;20355;-75
2024/04/25 05:57:24;;;;;;;;;;;17.40;53.60;;;;;;5450601;26;19924;-73
2024/04/25 05:59:49;;;;;;;;;;;18.10;50.70;;;;;;5450386;26;19924;-75
2024/04/25 06:02:15;;;;;;;;;;;18.40;46.60;;;;;;5448929;26;20399;-74
2024/04/25 06:04:40;;;;;;;;;;;18.50;44.40;;;;;;5418856;26;20502;-75
2024/04/25 06:07:06;;;;;;;;;;;19.00;42.80;;;;;;5450722;26;20377;-75
2024/04/25 06:09:32;;;;;;;;;;;19.30;41.50;;;;;;5450163;26;19931;-75
2024/04/25 06:11:57;;;;;;;;;;;19.50;40.60;;;;;;5448566;26;19936;-74
2024/04/25 06:14:23;;;;;;;;;;;19.80;39.70;;;;;;5418410;26;19931;-75
2024/04/25 06:16:49;;;;;;;;;;;19.60;39.50;;;;;;5448536;26;19924;-74
2024/04/25 06:19:14;;;;;;;;;;;19.70;40.10;;;;;;5447888;26;20361;-75
2024/04/25 06:21:40;;;;;;;;;;;19.80;39.40;;;;;;5448571;26;20326;-74
2024/04/25 06:24:06;;;;;;;;;;;19.70;39.60;;;;;;5450372;26;19939;-75
2024/04/25 06:26:32;;;;;;;;;;;19.80;39.30;;;;;;5450250;26;19924;-74
2024/04/25 06:28:57;;;;;;;;;;;19.90;38.50;;;;;;5448401;26;19924;-75
2024/04/25 06:31:23;;;;;;;;;;;19.50;39.90;;;;;;5450097;26;20281;-73
2024/04/25 06:33:49;;;;;;;;;;;19.20;40.10;;;;;;5449928;26;19924;-74
2024/04/25 06:36:15;;;;;;;;;;;19.10;40.10;;;;;;5450651;26;20375;-74
2024/04/25 06:38:41;;;;;;;;;;;19.10;40.50;;;;;;5448192;26;20038;-75
2024/04/25 06:41:06;;;;;;;;;;;18.90;40.20;;;;;;5418438;26;19967;-75
2024/04/25 06:43:32;;;;;;;;;;;18.80;40.60;;;;;;5448045;26;20266;-74
2024/04/25 06:45:57;;;;;;;;;;;18.70;41.20;;;;;;5418095;26;19968;-74
2024/04/25 06:48:23;;;;;;;;;;;18.50;41.70;;;;;;5449798;26;19924;-74
2024/04/25 06:50:48;;;;;;;;;;;18.30;41.30;;;;;;5449989;26;20007;-72
2024/04/25 06:53:14;;;;;;;;;;;18.40;41.50;;;;;;5450031;26;19924;-71
2024/04/25 06:55:40;;;;;;;;;;;18.60;41.00;;;;;;5449314;26;20031;-72
2024/04/25 06:58:05;;;;;;;;;;;18.60;41.70;;;;;;5417912;26;19924;-75
2024/04/25 07:00:31;;;;;;;;;;;18.70;42.20;;;;;;5417889;26;19924;-75
2024/04/25 07:02:57;;;;;;;;;;;18.70;41.70;;;;;;5449616;26;20265;-74
2024/04/25 07:05:23;;;;;;;;;;;18.80;41.30;;;;;;5449683;26;19932;-75
2024/04/25 07:07:49;;;;;;;;;;;18.80;42.60;;;;;;5447702;26;20338;-74
2024/04/25 07:10:15;;;;;;;;;;;19.10;37.90;;;;;;5449579;26;19988;-75
2024/04/25 07:12:40;;;;;;;;;;;19.00;38.20;;;;;;5447468;26;19924;-75
2024/04/25 07:15:06;;;;;;;;;;;19.20;37.30;;;;;;5447630;26;19964;-74
2024/04/25 07:17:32;;;;;;;;;;;19.00;36.80;;;;;;5449224;26;19925;-74
2024/04/25 07:19:59;;;;;;;;;;;19.10;37.30;;;;;;5447450;26;19936;-74
2024/04/25 07:22:25;;;;;;;;;;;19.30;38.40;;;;;;5449500;26;19925;-75
2024/04/25 07:24:50;;;;;;;;;;;19.60;38.20;;;;;;5449029;26;20000;-75
2024/04/25 07:27:16;;;;;;;;;;;20.00;36.10;;;;;;5449111;26;19925;-74
2024/04/25 07:29:45;;;;;;;;;;;20.00;32.00;;;;;;5449035;26;19924;-75
2024/04/25 07:32:11;;;;;;;;;;;20.10;32.80;;;;;;5448921;26;20276;-74
2024/04/25 07:34:36;;;;;;;;;;;19.80;35.20;;;;;;5449051;26;19993;-75
2024/04/25 07:37:02;;;;;;;;;;;20.00;34.70;;;;;;5447102;26;19924;-75
2024/04/25 07:39:28;;;;;;;;;;;20.10;34.70;;;;;;5417355;26;19925;-75
2024/04/25 07:41:53;;;;;;;;;;;20.30;33.70;;;;;;5447139;26;19985;-75
2024/04/25 07:44:19;;;;;;;;;;;20.90;30.00;;;;;;5417085;26;19960;-75
2024/04/25 07:46:44;;;;;;;;;;;20.90;31.60;;;;;;5448758;26;19924;-74
2024/04/25 07:49:12;;;;;;;;;;;21.20;33.00;;;;;;5448466;26;19931;-73
2024/04/25 07:51:38;;;;;;;;;;;21.70;30.20;;;;;;5448942;26;19924;-74
2024/04/25 07:54:04;;;;;;;;;;;21.80;28.90;;;;;;5448775;26;20361;-75
2024/04/25 07:56:29;;;;;;;;;;;21.80;29.60;;;;;;5448741;26;19931;-75
2024/04/25 07:58:55;;;;;;;;;;;21.90;30.00;;;;;;5448567;26;19932;-74
2024/04/25 08:01:20;;;;;;;;;;;22.00;30.40;;;;;;5448537;26;19924;-75
2024/04/25 08:03:46;;;;;;;;;;;22.40;30.90;;;;;;5446510;26;19936;-74
2024/04/25 08:06:12;;;;;;;;;;;22.40;29.10;;;;;;5446967;26;20612;-75
2024/04/25 08:08:38;;;;;;;;;;;22.40;30.30;;;;;;5452102;26;19925;-75
2024/04/25 08:11:04;;;;;;;;;;;22.80;30.00;;;;;;5452314;26;19988;-75
2024/04/25 08:13:30;;;;;;;;;;;23.00;28.80;;;;;;5452153;26;20291;-75
2024/04/25 08:15:55;;;;;;;;;;;23.50;29.20;;;;;;5450061;26;20013;-75
2024/04/25 08:18:21;;;;;;;;;;;23.80;29.00;;;;;;5452192;26;19961;-75
2024/04/25 08:20:46;;;;;;;;;;;24.00;27.90;;;;;;5420567;26;20430;-75
2024/04/25 08:23:12;;;;;;;;;;;24.30;26.70;;;;;;5450291;26;20369;-75
2024/04/25 08:25:37;;;;;;;;;;;24.30;27.00;;;;;;5452091;26;19948;-75
2024/04/25 08:28:03;;;;;;;;;;;24.10;27.30;;;;;;5450241;26;19935;-75
2024/04/25 08:30:28;;;;;;;;;;;24.70;26.10;;;;;;5420125;26;19925;-76
2024/04/25 08:32:54;;;;;;;;;;;24.70;26.30;;;;;;5452464;26;20031;-75
2024/04/25 08:35:20;;;;;;;;;;;24.90;24.60;;;;;;5450103;26;19993;-75
2024/04/25 08:37:45;;;;;;;;;;;24.50;24.60;;;;;;5420023;26;20278;-75
2024/04/25 08:40:11;;;;;;;;;;;24.40;24.80;;;;;;5451845;26;19931;-74
2024/04/25 08:42:37;;;;;;;;;;;24.40;24.50;;;;;;5449966;26;19932;-74
2024/04/25 08:45:04;;;;;;;;;;;24.40;24.70;;;;;;5451828;26;19924;-75
2024/04/25 08:47:32;;;;;;;;;;;24.40;25.40;;;;;;5449755;26;19925;-75
2024/04/25 08:50:00;;;;;;;;;;;24.40;25.30;;;;;;5449796;26;19931;-75
2024/04/25 08:52:27;;;;;;;;;;;24.30;24.70;;;;;;5449736;26;19925;-75
2024/04/25 08:54:53;;;;;;;;;;;24.30;25.40;;;;;;5449779;26;19933;-74
2024/04/25 08:57:19;;;;;;;;;;;24.10;26.20;;;;;;5451509;26;19936;-74
2024/04/25 08:59:44;;;;;;;;;;;23.90;26.70;;;;;;5449614;26;19982;-75
2024/04/25 09:02:11;;;;;;;;;;;23.50;27.60;;;;;;5449619;26;20052;-72
2024/04/25 09:04:38;;;;;;;;;;;23.40;26.80;;;;;;5449697;26;20331;-75
2024/04/25 09:07:11;;;;;;;;;;;23.20;27.80;;;;;;5449442;26;19925;-75
2024/04/25 09:09:37;;;;;;;;;;;22.90;27.40;;;;;;5451563;26;19931;-75
2024/04/25 09:12:02;;;;;;;;;;;22.70;27.90;;;;;;5451518;26;19925;-74
2024/04/25 09:14:28;;;;;;;;;;;22.60;27.70;;;;;;5451604;26;19924;-75
2024/04/25 09:16:53;;;;;;;;;;;22.60;27.60;;;;;;5449218;26;20346;-74
2024/04/25 09:19:21;;;;;;;;;;;22.70;28.20;;;;;;5449290;26;20277;-74
2024/04/25 09:21:47;;;;;;;;;;;22.60;27.60;;;;;;5449530;26;20372;-74
2024/04/25 09:24:13;;;;;;;;;;;22.40;27.80;;;;;;5451184;26;19931;-76
2024/04/25 09:26:40;;;;;;;;;;;22.30;28.20;;;;;;5451284;26;19948;-75
2024/04/25 09:29:06;;;;;;;;;;;22.30;28.50;;;;;;5449220;26;20403;-74
2024/04/25 09:31:33;;;;;;;;;;;22.20;27.20;;;;;;5450961;26;19997;-75
2024/04/25 09:33:59;;;;;;;;;;;22.40;27.20;;;;;;5451029;26;19925;-75
2024/04/25 09:36:24;;;;;;;;;;;22.40;27.80;;;;;;5450885;26;19979;-74
2024/04/25 09:38:53;;;;;;;;;;;22.60;27.40;;;;;;5450761;26;19931;-75
2024/04/25 09:41:19;;;;;;;;;;;22.70;26.50;;;;;;5418942;26;20285;-73
2024/04/25 09:43:45;;;;;;;;;;;22.70;25.70;;;;;;5450864;26;19954;-75
2024/04/25 09:46:14;;;;;;;;;;;22.30;26.40;;;;;;5450856;26;19925;-74
2024/04/25 09:48:43;;;;;;;;;;;22.40;26.40;;;;;;5448757;26;19996;-75
2024/04/25 09:51:13;;;;;;;;;;;22.40;26.90;;;;;;5450857;26;19926;-74
2024/04/25 09:53:52;;;;;;;;;;;22.50;27.10;;;;;;5448776;26;19970;-76
2024/04/25 09:56:19;;;;;;;;;;;22.60;26.80;;;;;;5450941;26;19931;-73
2024/04/25 09:58:48;;;;;;;;;;;23.00;24.70;;;;;;5451119;26;19937;-74
2024/04/25 10:01:15;;;;;;;;;;;23.00;25.40;;;;;;5450705;26;19931;-75
2024/04/25 10:03:41;;;;;;;;;;;23.00;27.00;;;;;;5419087;26;19924;-76
2024/04/25 10:06:07;;;;;;;;;;;23.20;25.90;;;;;;5418698;26;19924;-74
2024/04/25 10:08:32;;;;;;;;;;;23.60;25.10;;;;;;5418960;26;19924;-75
2024/04/25 10:10:58;;;;;;;;;;;23.80;25.20;;;;;;5450670;26;19924;-75
2024/04/25 10:13:24;;;;;;;;;;;23.90;24.00;;;;;;5418517;26;20554;-75
2024/04/25 10:15:54;;;;;;;;;;;23.90;25.50;;;;;;5448486;26;20335;-75
2024/04/25 10:18:19;;;;;;;;;;;24.30;24.80;;;;;;5450260;26;19924;-74
2024/04/25 10:20:47;;;;;;;;;;;24.30;25.40;;;;;;5450277;26;19935;-75
2024/04/25 10:23:12;;;;;;;;;;;23.60;24.80;;;;;;5450268;26;19969;-74
2024/04/25 10:25:38;;;;;;;;;;;22.50;26.00;;;;;;5450177;26;19996;-75
2024/04/25 10:28:04;;;;;;;;;;;21.60;26.30;;;;;;5450167;26;19931;-73
2024/04/25 10:30:30;;;;;;;;;;;20.60;27.40;;;;;;5417377;26;19952;-75
2024/04/25 10:32:56;;;;;;;;;;;20.10;28.10;;;;;;5448460;26;20261;-74
2024/04/25 10:35:21;;;;;;;;;;;19.30;27.80;;;;;;5450063;26;20338;-74
2024/04/25 10:37:49;;;;;;;;;;;18.60;29.30;;;;;;5418335;26;20345;-74
2024/04/25 10:40:15;;;;;;;;;;;18.20;29.30;;;;;;5449900;26;20531;-75
2024/04/25 10:42:41;;;;;;;;;;;17.70;30.90;;;;;;5448048;26;19924;-74
2024/04/25 10:45:07;;;;;;;;;;;17.50;33.20;;;;;;5450000;26;19951;-74
2024/04/25 10:47:32;;;;;;;;;;;17.40;35.30;;;;;;5448284;26;19952;-74
2024/04/25 10:49:58;;;;;;;;;;;17.50;36.10;;;;;;5450016;26;19931;-74
2024/04/25 10:52:24;;;;;;;;;;;17.60;37.50;;;;;;5449908;26;20416;-74
2024/04/25 10:54:50;;;;;;;;;;;17.50;36.90;;;;;;5449809;26;19924;-74
2024/04/25 10:57:15;;;;;;;;;;;17.50;37.10;;;;;;5417813;26;20022;-74
2024/04/25 10:59:42;;;;;;;;;;;17.60;38.30;;;;;;5449730;26;20298;-73
2024/04/25 11:02:09;;;;;;;;;;;17.70;37.80;;;;;;5418234;26;19925;-74
2024/04/25 11:04:35;;;;;;;;;;;17.70;38.50;;;;;;5418146;26;19936;-74
2024/04/25 11:07:01;;;;;;;;;;;17.70;38.40;;;;;;5449676;26;19931;-74
2024/04/25 11:09:26;;;;;;;;;;;17.90;35.60;;;;;;5447739;26;19925;-75
2024/04/25 11:11:52;;;;;;;;;;;17.90;34.10;;;;;;5449294;26;20346;-75
2024/04/25 11:14:18;;;;;;;;;;;18.10;34.20;;;;;;5417781;26;20465;-73
2024/04/25 11:16:43;;;;;;;;;;;18.30;34.30;;;;;;5449391;26;20353;-74
2024/04/25 11:19:09;;;;;;;;;;;18.20;31.80;;;;;;5449301;26;19924;-74
2024/04/25 11:21:35;;;;;;;;;;;18.30;33.70;;;;;;5447555;26;19924;-73
2024/04/25 11:24:01;;;;;;;;;;;18.20;34.70;;;;;;5449151;26;19924;-74
2024/04/25 11:26:27;;;;;;;;;;;18.30;35.30;;;;;;5449190;26;19930;-75
2024/04/25 11:28:53;;;;;;;;;;;18.50;34.50;;;;;;5449092;26;19924;-75
2024/04/25 11:31:20;;;;;;;;;;;18.60;34.00;;;;;;5447352;26;20422;-75
2024/04/25 11:33:45;;;;;;;;;;;18.60;30.40;;;;;;5449255;26;19931;-74
2024/04/25 11:36:20;;;;;;;;;;;18.40;30.80;;;;;;5417248;26;19929;-75
2024/04/25 11:38:45;;;;;;;;;;;18.50;33.50;;;;;;5449126;26;20078;-75
2024/04/25 11:41:11;;;;;;;;;;;18.50;34.40;;;;;;5448915;26;19965;-75
2024/04/25 11:43:37;;;;;;;;;;;18.40;31.90;;;;;;5452362;26;19925;-75
2024/04/25 11:46:03;;;;;;;;;;;18.20;31.70;;;;;;5452416;26;20365;-75
2024/04/25 11:48:31;;;;;;;;;;;18.00;31.00;;;;;;5452348;26;19997;-75
2024/04/25 11:50:56;;;;;;;;;;;17.90;30.00;;;;;;5450579;26;19987;-75
2024/04/25 11:53:22;;;;;;;;;;;17.80;31.60;;;;;;5450550;26;20063;-75
2024/04/25 11:55:47;;;;;;;;;;;17.80;34.60;;;;;;5420583;26;19932;-74
2024/04/25 11:58:13;;;;;;;;;;;17.80;36.00;;;;;;5452197;26;19924;-74
2024/04/25 12:00:38;;;;;;;;;;;17.70;34.90;;;;;;5452198;26;19924;-74
2024/04/25 12:03:04;;;;;;;;;;;17.60;34.70;;;;;;5452317;26;19925;-75
2024/04/25 12:05:31;;;;;;;;;;;17.70;34.90;;;;;;5452194;26;20414;-74
2024/04/25 12:08:02;;;;;;;;;;;17.70;33.90;;;;;;5450273;26;20357;-74
2024/04/25 12:10:30;;;;;;;;;;;17.70;34.70;;;;;;5450320;26;19924;-74
2024/04/25 12:12:56;;;;;;;;;;;17.80;34.30;;;;;;5452149;26;19948;-75
2024/04/25 12:15:21;;;;;;;;;;;17.60;30.00;;;;;;5452262;26;19924;-74
2024/04/25 12:17:47;;;;;;;;;;;17.30;33.10;;;;;;5452000;26;19931;-75
2024/04/25 12:20:13;;;;;;;;;;;16.90;34.20;;;;;;5451991;26;20269;-74
2024/04/25 12:22:38;;;;;;;;;;;16.70;34.90;;;;;;5452188;26;19966;-74
2024/04/25 12:25:04;;;;;;;;;;;16.50;33.20;;;;;;5452081;26;19925;-75
2024/04/25 12:27:29;;;;;;;;;;;16.50;34.50;;;;;;5450186;26;20272;-74
2024/04/25 12:29:55;;;;;;;;;;;16.70;37.60;;;;;;5449827;26;19932;-75
2024/04/25 12:32:20;;;;;;;;;;;16.80;37.70;;;;;;5450023;26;19985;-75
2024/04/25 12:34:46;;;;;;;;;;;16.80;34.90;;;;;;5420136;26;19924;-74
2024/04/25 12:37:11;;;;;;;;;;;16.50;34.30;;;;;;5450078;26;19924;-74
2024/04/25 12:39:41;;;;;;;;;;;16.40;35.50;;;;;;5451899;26;19924;-74
2024/04/25 12:42:08;;;;;;;;;;;16.30;35.10;;;;;;5451809;26;19956;-75
2024/04/25 12:44:33;;;;;;;;;;;16.20;35.40;;;;;;5451602;26;19924;-74
2024/04/25 12:46:59;;;;;;;;;;;16.40;34.80;;;;;;5451596;26;19929;-73
2024/04/25 12:49:29;;;;;;;;;;;16.50;36.80;;;;;;5449581;26;19993;-74
2024/04/25 12:51:55;;;;;;;;;;;16.60;31.20;;;;;;5449291;26;19941;-74
2024/04/25 12:54:20;;;;;;;;;;;16.60;34.80;;;;;;5419911;26;19925;-74
2024/04/25 12:56:46;;;;;;;;;;;16.80;36.10;;;;;;5449521;26;20365;-73
2024/04/25 12:59:11;;;;;;;;;;;16.90;37.60;;;;;;5419665;26;20345;-74
2024/04/25 13:01:37;;;;;;;;;;;17.00;37.90;;;;;;5452448;26;20424;-74
2024/04/25 13:04:02;;;;;;;;;;;17.20;37.70;;;;;;5449228;26;20386;-74
2024/04/25 13:06:28;;;;;;;;;;;17.30;35.50;;;;;;5449747;26;20353;-74
2024/04/25 13:08:54;;;;;;;;;;;17.30;35.80;;;;;;5419892;26;20566;-74
2024/04/25 13:11:19;;;;;;;;;;;17.30;36.80;;;;;;5451561;26;20266;-74
2024/04/25 13:13:45;;;;;;;;;;;17.40;36.90;;;;;;5419474;26;19925;-74
2024/04/25 13:16:10;;;;;;;;;;;17.40;35.60;;;;;;5449585;26;19962;-74
2024/04/25 13:18:37;;;;;;;;;;;17.40;35.00;;;;;;5451501;26;19956;-74
2024/04/25 13:21:03;;;;;;;;;;;17.30;36.30;;;;;;5451156;26;19956;-73
2024/04/25 13:23:28;;;;;;;;;;;17.20;36.60;;;;;;5451301;26;20277;-75
2024/04/25 13:25:54;;;;;;;;;;;17.10;36.70;;;;;;5451295;26;19925;-72
2024/04/25 13:28:19;;;;;;;;;;;17.10;35.20;;;;;;5451139;26;19993;-74
2024/04/25 13:30:45;;;;;;;;;;;16.90;36.10;;;;;;5449270;26;19933;-75
2024/04/25 13:33:11;;;;;;;;;;;16.90;37.40;;;;;;5449214;26;19970;-75
2024/04/25 13:35:37;;;;;;;;;;;16.90;37.40;;;;;;5413271;26;19931;-74
2024/04/25 13:38:02;;;;;;;;;;;16.80;35.80;;;;;;5414944;26;19925;-74
2024/04/25 13:40:28;;;;;;;;;;;16.80;36.40;;;;;;5415209;26;19933;-76
2024/04/25 13:42:54;;;;;;;;;;;16.90;35.90;;;;;;5413129;26;19925;-75
2024/04/25 13:45:19;;;;;;;;;;;16.90;36.50;;;;;;5413183;26;19925;-75
2024/04/25 13:47:45;;;;;;;;;;;16.70;36.40;;;;;;5414924;26;20257;-74
2024/04/25 13:50:10;;;;;;;;;;;16.80;37.00;;;;;;5414893;26;20260;-75
2024/04/25 13:52:36;;;;;;;;;;;16.70;36.60;;;;;;5412995;26;20336;-75
2024/04/25 13:55:01;;;;;;;;;;;16.70;36.70;;;;;;5415208;26;19929;-74
2024/04/25 13:57:27;;;;;;;;;;;16.60;36.10;;;;;;5414818;26;19925;-74
2024/04/25 13:59:52;;;;;;;;;;;16.60;36.80;;;;;;5412867;26;19953;-74
2024/04/25 14:02:18;;;;;;;;;;;16.60;36.90;;;;;;5414933;26;19932;-74
2024/04/25 14:04:44;;;;;;;;;;;16.50;35.50;;;;;;5411405;26;19925;-74
2024/04/25 14:07:10;;;;;;;;;;;16.50;38.10;;;;;;5412949;26;19933;-73
2024/04/25 14:09:39;;;;;;;;;;;16.50;37.10;;;;;;5412825;26;19925;-74
2024/04/25 14:12:05;;;;;;;;;;;16.40;38.70;;;;;;5412695;26;19932;-75
2024/04/25 14:14:30;;;;;;;;;;;16.40;38.70;;;;;;5414670;26;19994;-75
2024/04/25 14:16:56;;;;;;;;;;;16.30;38.00;;;;;;5414561;26;19925;-75
2024/04/25 14:19:22;;;;;;;;;;;16.30;38.50;;;;;;5414400;26;19932;-74